首页
METAR-TAF:

METAR-TAF

机场 :

温斯顿-塞勒姆, 北卡罗来纳州, 美国

纬度: 36-08-00N, 经度: 080-13-29W, 海拔: 295米

当前天气观测

该预报发布于18分钟前的15:54 UTC
风速4节,风向西南
温度 28°C
湿度 74%
气压 1019 hPa
能見度: 16.1公里
少量云层高于2000英尺

METAR: KINT 161554Z 22004KT 10SM FEW020 28/23 A3009 RMK AO2 SLP175 T02780228

时间: 12:12 (16:12 UTC)

预报

该预报发布于4小时和43分钟前的11:29 UTC
预报有效从16日的 12点(UTC)到 17日的 12点(UTC)
风速4节,风向多变
能見度: 10公里
多云层高于14000英尺
从 16日的 1700点(UTC)
风速10节,风向西南
能見度: 10公里
散云层高于4000英尺, 积雨云.
多云层高于12000英尺
附近有雷暴
从 16日的 2100点(UTC)
风速10节,风向,有时为18节阵风
能見度: 10公里
散云层高于5000英尺
多云层高于20000英尺
从 16日的 2300点(UTC)
风速7节,风向南转西南
能見度: 10公里
散云层高于4000英尺
从 17日的 0300点(UTC)
风速4节,风向多变
能見度: 10公里
散云层高于20000英尺
从 17日的 0800点(UTC)
风速5节,风向南转西南
能見度: 10公里
阴天层高于600英尺

TAF: KINT 161129Z 1612/1712 VRB04KT P6SM BKN140 FM161700 22010KT P6SM VCTS SCT040CB BKN120 FM162100 19010G18KT P6SM SCT050 BKN200 FM162300 21007KT P6SM SCT040 FM170300 VRB04KT P6SM SCT200 FM170800 21005KT P6SM OVC006

超过4000个机场的气象观测和天气预报(METAR&TAF报告)。

可查询的气象台以黄色和红色小点在地图上表示。

将鼠标移到小点上方,可查看气象台名称。

然后点击查看天气观测和预报。

如需切换地图:点击带黑十字的绿色按钮放大地图;点击带横线的绿色按钮缩小地图;或者点击绿色箭头查看邻近地区的地图。


METAR-TAF: